sensor_id;sensor_type;location;lat;lon;timestamp;P1;durP1;ratioP1;P2;durP2;ratioP2
40931;SDS011;36257;46.052;12.540;2023-12-22T00:00:36;23.10;;;18.53;;
40931;SDS011;36257;46.052;12.540;2023-12-22T00:03:02;24.90;;;18.83;;
40931;SDS011;36257;46.052;12.540;2023-12-22T00:05:28;17.37;;;15.53;;
40931;SDS011;36257;46.052;12.540;2023-12-22T00:07:53;15.43;;;13.73;;
40931;SDS011;36257;46.052;12.540;2023-12-22T00:10:19;15.57;;;13.03;;
40931;SDS011;36257;46.052;12.540;2023-12-22T00:12:45;13.73;;;12.27;;
40931;SDS011;36257;46.052;12.540;2023-12-22T00:15:10;14.27;;;12.77;;
40931;SDS011;36257;46.052;12.540;2023-12-22T00:17:36;14.37;;;12.87;;
40931;SDS011;36257;46.052;12.540;2023-12-22T00:20:02;14.13;;;12.70;;
40931;SDS011;36257;46.052;12.540;2023-12-22T00:22:28;16.53;;;13.87;;
40931;SDS011;36257;46.052;12.540;2023-12-22T00:24:55;15.00;;;13.40;;
40931;SDS011;36257;46.052;12.540;2023-12-22T00:27:20;15.40;;;13.80;;
40931;SDS011;36257;46.052;12.540;2023-12-22T00:29:46;15.77;;;14.17;;
40931;SDS011;36257;46.052;12.540;2023-12-22T00:32:12;15.73;;;14.07;;
40931;SDS011;36257;46.052;12.540;2023-12-22T00:34:37;17.83;;;14.20;;
40931;SDS011;36257;46.052;12.540;2023-12-22T00:37:03;15.90;;;13.63;;
40931;SDS011;36257;46.052;12.540;2023-12-22T00:39:29;14.73;;;12.70;;
40931;SDS011;36257;46.052;12.540;2023-12-22T00:41:56;16.10;;;14.47;;
40931;SDS011;36257;46.052;12.540;2023-12-22T00:44:21;16.00;;;13.87;;
40931;SDS011;36257;46.052;12.540;2023-12-22T00:46:47;15.80;;;14.10;;
40931;SDS011;36257;46.052;12.540;2023-12-22T00:49:13;18.33;;;13.47;;
40931;SDS011;36257;46.052;12.540;2023-12-22T00:51:39;13.93;;;12.53;;
40931;SDS011;36257;46.052;12.540;2023-12-22T00:54:04;17.67;;;13.97;;
40931;SDS011;36257;46.052;12.540;2023-12-22T00:56:30;13.93;;;12.47;;
40931;SDS011;36257;46.052;12.540;2023-12-22T00:58:55;15.57;;;12.47;;
40931;SDS011;36257;46.052;12.540;2023-12-22T01:01:21;14.00;;;12.40;;
40931;SDS011;36257;46.052;12.540;2023-12-22T01:03:47;13.90;;;12.43;;
40931;SDS011;36257;46.052;12.540;2023-12-22T01:06:12;10.97;;;9.93;;
40931;SDS011;36257;46.052;12.540;2023-12-22T01:08:39;12.47;;;11.17;;
40931;SDS011;36257;46.052;12.540;2023-12-22T01:11:05;15.10;;;13.50;;
40931;SDS011;36257;46.052;12.540;2023-12-22T01:13:30;16.67;;;14.87;;
40931;SDS011;36257;46.052;12.540;2023-12-22T01:15:56;15.80;;;14.10;;
40931;SDS011;36257;46.052;12.540;2023-12-22T01:18:22;16.70;;;15.00;;
40931;SDS011;36257;46.052;12.540;2023-12-22T01:20:47;16.13;;;14.40;;
40931;SDS011;36257;46.052;12.540;2023-12-22T01:23:14;17.27;;;15.47;;
40931;SDS011;36257;46.052;12.540;2023-12-22T01:25:40;15.63;;;13.73;;
40931;SDS011;36257;46.052;12.540;2023-12-22T01:28:05;18.80;;;14.67;;
40931;SDS011;36257;46.052;12.540;2023-12-22T01:30:31;16.10;;;14.10;;
40931;SDS011;36257;46.052;12.540;2023-12-22T01:32:57;17.33;;;14.57;;
40931;SDS011;36257;46.052;12.540;2023-12-22T01:35:22;15.20;;;13.60;;
40931;SDS011;36257;46.052;12.540;2023-12-22T01:37:48;13.67;;;12.27;;
40931;SDS011;36257;46.052;12.540;2023-12-22T01:40:18;13.43;;;12.03;;
40931;SDS011;36257;46.052;12.540;2023-12-22T01:42:44;14.40;;;12.37;;
40931;SDS011;36257;46.052;12.540;2023-12-22T01:45:10;14.97;;;12.80;;
40931;SDS011;36257;46.052;12.540;2023-12-22T01:47:36;12.37;;;11.07;;
40931;SDS011;36257;46.052;12.540;2023-12-22T01:50:02;12.80;;;11.20;;
40931;SDS011;36257;46.052;12.540;2023-12-22T01:52:28;13.93;;;10.87;;
40931;SDS011;36257;46.052;12.540;2023-12-22T01:54:54;12.37;;;10.73;;
40931;SDS011;36257;46.052;12.540;2023-12-22T01:57:20;11.43;;;10.23;;
40931;SDS011;36257;46.052;12.540;2023-12-22T01:59:46;10.87;;;9.87;;
40931;SDS011;36257;46.052;12.540;2023-12-22T02:02:14;10.77;;;9.77;;
40931;SDS011;36257;46.052;12.540;2023-12-22T02:04:40;10.20;;;9.20;;
40931;SDS011;36257;46.052;12.540;2023-12-22T02:07:06;9.83;;;9.03;;
40931;SDS011;36257;46.052;12.540;2023-12-22T02:09:35;9.47;;;8.50;;
40931;SDS011;36257;46.052;12.540;2023-12-22T02:12:02;9.35;;;8.15;;
40931;SDS011;36257;46.052;12.540;2023-12-22T02:14:28;8.63;;;7.93;;
40931;SDS011;36257;46.052;12.540;2023-12-22T02:22:04;10.77;;;9.77;;
40931;SDS011;36257;46.052;12.540;2023-12-22T02:27:03;10.90;;;9.80;;
40931;SDS011;36257;46.052;12.540;2023-12-22T02:29:37;11.13;;;10.03;;
40931;SDS011;36257;46.052;12.540;2023-12-22T02:32:14;10.80;;;9.70;;
40931;SDS011;36257;46.052;12.540;2023-12-22T02:34:47;10.43;;;9.43;;
40931;SDS011;36257;46.052;12.540;2023-12-22T02:37:16;11.60;;;10.47;;
40931;SDS011;36257;46.052;12.540;2023-12-22T02:39:45;11.73;;;10.60;;
40931;SDS011;36257;46.052;12.540;2023-12-22T02:42:12;12.77;;;11.10;;
40931;SDS011;36257;46.052;12.540;2023-12-22T02:44:39;12.87;;;11.53;;
40931;SDS011;36257;46.052;12.540;2023-12-22T02:47:04;13.23;;;11.90;;
40931;SDS011;36257;46.052;12.540;2023-12-22T02:49:30;13.00;;;11.70;;
40931;SDS011;36257;46.052;12.540;2023-12-22T02:51:56;15.37;;;12.83;;
40931;SDS011;36257;46.052;12.540;2023-12-22T02:54:21;16.70;;;14.97;;
40931;SDS011;36257;46.052;12.540;2023-12-22T02:56:47;15.40;;;13.77;;
40931;SDS011;36257;46.052;12.540;2023-12-22T02:59:13;15.43;;;13.80;;
40931;SDS011;36257;46.052;12.540;2023-12-22T03:01:38;14.17;;;12.70;;
40931;SDS011;36257;46.052;12.540;2023-12-22T03:04:04;13.20;;;11.73;;
40931;SDS011;36257;46.052;12.540;2023-12-22T03:06:30;14.47;;;12.47;;
40931;SDS011;36257;46.052;12.540;2023-12-22T03:08:55;11.60;;;10.57;;
40931;SDS011;36257;46.052;12.540;2023-12-22T03:11:21;14.13;;;10.67;;
40931;SDS011;36257;46.052;12.540;2023-12-22T03:13:47;12.40;;;11.07;;
40931;SDS011;36257;46.052;12.540;2023-12-22T03:16:12;12.20;;;11.00;;
40931;SDS011;36257;46.052;12.540;2023-12-22T03:18:38;13.17;;;11.57;;
40931;SDS011;36257;46.052;12.540;2023-12-22T03:21:04;11.97;;;10.70;;
40931;SDS011;36257;46.052;12.540;2023-12-22T03:23:30;12.53;;;11.27;;
40931;SDS011;36257;46.052;12.540;2023-12-22T03:25:56;13.27;;;11.93;;
40931;SDS011;36257;46.052;12.540;2023-12-22T03:28:21;12.50;;;10.63;;
40931;SDS011;36257;46.052;12.540;2023-12-22T03:30:47;13.30;;;10.93;;
40931;SDS011;36257;46.052;12.540;2023-12-22T03:33:12;12.27;;;10.97;;
40931;SDS011;36257;46.052;12.540;2023-12-22T03:35:38;13.03;;;10.17;;
40931;SDS011;36257;46.052;12.540;2023-12-22T03:38:04;11.40;;;10.17;;
40931;SDS011;36257;46.052;12.540;2023-12-22T03:40:29;12.60;;;11.40;;
40931;SDS011;36257;46.052;12.540;2023-12-22T03:42:55;14.80;;;13.13;;
40931;SDS011;36257;46.052;12.540;2023-12-22T03:45:21;14.40;;;12.77;;
40931;SDS011;36257;46.052;12.540;2023-12-22T03:47:47;12.87;;;11.53;;
40931;SDS011;36257;46.052;12.540;2023-12-22T03:50:12;12.57;;;11.03;;
40931;SDS011;36257;46.052;12.540;2023-12-22T03:52:38;13.63;;;12.23;;
40931;SDS011;36257;46.052;12.540;2023-12-22T03:55:04;14.47;;;11.93;;
40931;SDS011;36257;46.052;12.540;2023-12-22T03:57:30;13.53;;;12.17;;
40931;SDS011;36257;46.052;12.540;2023-12-22T03:59:55;14.20;;;12.77;;
40931;SDS011;36257;46.052;12.540;2023-12-22T04:02:21;13.80;;;11.73;;
40931;SDS011;36257;46.052;12.540;2023-12-22T04:04:47;14.43;;;12.57;;
40931;SDS011;36257;46.052;12.540;2023-12-22T04:07:12;16.00;;;12.73;;
40931;SDS011;36257;46.052;12.540;2023-12-22T04:09:38;16.50;;;14.90;;
40931;SDS011;36257;46.052;12.540;2023-12-22T04:12:04;15.80;;;14.10;;
40931;SDS011;36257;46.052;12.540;2023-12-22T04:14:30;14.80;;;13.30;;
40931;SDS011;36257;46.052;12.540;2023-12-22T04:16:56;15.60;;;14.00;;
40931;SDS011;36257;46.052;12.540;2023-12-22T04:19:22;14.37;;;12.83;;
40931;SDS011;36257;46.052;12.540;2023-12-22T04:21:47;16.07;;;11.77;;
40931;SDS011;36257;46.052;12.540;2023-12-22T04:24:13;18.47;;;14.23;;
40931;SDS011;36257;46.052;12.540;2023-12-22T04:26:39;13.20;;;11.63;;
40931;SDS011;36257;46.052;12.540;2023-12-22T04:29:05;13.60;;;12.13;;
40931;SDS011;36257;46.052;12.540;2023-12-22T04:31:30;16.00;;;12.40;;
40931;SDS011;36257;46.052;12.540;2023-12-22T04:33:56;13.97;;;12.23;;
40931;SDS011;36257;46.052;12.540;2023-12-22T04:36:22;14.53;;;13.07;;
40931;SDS011;36257;46.052;12.540;2023-12-22T04:38:47;21.90;;;15.17;;
40931;SDS011;36257;46.052;12.540;2023-12-22T04:41:13;16.47;;;14.10;;
40931;SDS011;36257;46.052;12.540;2023-12-22T04:43:38;17.17;;;14.37;;
40931;SDS011;36257;46.052;12.540;2023-12-22T04:46:04;16.27;;;14.57;;
40931;SDS011;36257;46.052;12.540;2023-12-22T04:48:30;15.03;;;13.50;;
40931;SDS011;36257;46.052;12.540;2023-12-22T04:50:58;19.17;;;16.17;;
40931;SDS011;36257;46.052;12.540;2023-12-22T04:53:23;18.10;;;14.90;;
40931;SDS011;36257;46.052;12.540;2023-12-22T04:55:49;16.97;;;15.03;;
40931;SDS011;36257;46.052;12.540;2023-12-22T04:58:15;22.47;;;16.37;;
40931;SDS011;36257;46.052;12.540;2023-12-22T05:00:40;17.77;;;15.37;;
40931;SDS011;36257;46.052;12.540;2023-12-22T05:03:06;16.73;;;14.83;;
40931;SDS011;36257;46.052;12.540;2023-12-22T05:05:31;18.13;;;15.37;;
40931;SDS011;36257;46.052;12.540;2023-12-22T05:07:57;18.77;;;15.47;;
40931;SDS011;36257;46.052;12.540;2023-12-22T05:10:23;17.47;;;14.97;;
40931;SDS011;36257;46.052;12.540;2023-12-22T05:12:48;16.00;;;14.20;;
40931;SDS011;36257;46.052;12.540;2023-12-22T05:15:14;18.03;;;15.50;;
40931;SDS011;36257;46.052;12.540;2023-12-22T05:17:40;17.63;;;15.70;;
40931;SDS011;36257;46.052;12.540;2023-12-22T05:20:06;17.73;;;15.33;;
40931;SDS011;36257;46.052;12.540;2023-12-22T05:22:32;21.57;;;18.00;;
40931;SDS011;36257;46.052;12.540;2023-12-22T05:24:57;20.00;;;17.60;;
40931;SDS011;36257;46.052;12.540;2023-12-22T05:27:23;24.90;;;18.10;;
40931;SDS011;36257;46.052;12.540;2023-12-22T05:29:51;21.60;;;17.17;;
40931;SDS011;36257;46.052;12.540;2023-12-22T05:32:17;20.67;;;18.47;;
40931;SDS011;36257;46.052;12.540;2023-12-22T05:34:42;21.53;;;17.77;;
40931;SDS011;36257;46.052;12.540;2023-12-22T05:37:08;22.37;;;18.63;;
40931;SDS011;36257;46.052;12.540;2023-12-22T05:39:34;22.10;;;19.23;;
40931;SDS011;36257;46.052;12.540;2023-12-22T05:41:59;21.17;;;18.70;;
40931;SDS011;36257;46.052;12.540;2023-12-22T05:44:25;21.37;;;19.03;;
40931;SDS011;36257;46.052;12.540;2023-12-22T05:46:54;24.10;;;17.77;;
40931;SDS011;36257;46.052;12.540;2023-12-22T05:49:20;24.27;;;20.43;;
40931;SDS011;36257;46.052;12.540;2023-12-22T05:51:46;21.63;;;18.67;;
40931;SDS011;36257;46.052;12.540;2023-12-22T05:54:12;24.73;;;19.67;;
40931;SDS011;36257;46.052;12.540;2023-12-22T05:56:38;24.43;;;19.83;;
40931;SDS011;36257;46.052;12.540;2023-12-22T05:59:03;24.83;;;19.80;;
40931;SDS011;36257;46.052;12.540;2023-12-22T06:01:30;25.67;;;20.30;;
40931;SDS011;36257;46.052;12.540;2023-12-22T06:03:56;26.90;;;20.77;;
40931;SDS011;36257;46.052;12.540;2023-12-22T06:06:22;28.43;;;21.80;;
40931;SDS011;36257;46.052;12.540;2023-12-22T06:08:48;25.17;;;21.27;;
40931;SDS011;36257;46.052;12.540;2023-12-22T06:11:14;26.60;;;20.57;;
40931;SDS011;36257;46.052;12.540;2023-12-22T06:13:40;27.57;;;22.20;;
40931;SDS011;36257;46.052;12.540;2023-12-22T06:16:06;25.80;;;21.73;;
40931;SDS011;36257;46.052;12.540;2023-12-22T06:18:35;27.00;;;21.93;;
40931;SDS011;36257;46.052;12.540;2023-12-22T06:21:00;27.43;;;22.63;;
40931;SDS011;36257;46.052;12.540;2023-12-22T06:23:26;27.52;;;21.02;;
40931;SDS011;36257;46.052;12.540;2023-12-22T06:25:52;27.03;;;22.87;;
40931;SDS011;36257;46.052;12.540;2023-12-22T06:28:18;26.13;;;22.47;;
40931;SDS011;36257;46.052;12.540;2023-12-22T06:30:44;33.17;;;24.37;;
40931;SDS011;36257;46.052;12.540;2023-12-22T06:33:10;29.43;;;23.53;;
40931;SDS011;36257;46.052;12.540;2023-12-22T06:35:36;34.83;;;25.30;;
40931;SDS011;36257;46.052;12.540;2023-12-22T06:38:02;28.50;;;24.03;;
40931;SDS011;36257;46.052;12.540;2023-12-22T06:40:30;28.33;;;24.20;;
40931;SDS011;36257;46.052;12.540;2023-12-22T06:42:56;27.37;;;24.40;;
40931;SDS011;36257;46.052;12.540;2023-12-22T06:45:21;27.95;;;21.95;;
40931;SDS011;36257;46.052;12.540;2023-12-22T06:47:47;23.80;;;20.00;;
40931;SDS011;36257;46.052;12.540;2023-12-22T06:50:12;25.30;;;21.23;;
40931;SDS011;36257;46.052;12.540;2023-12-22T06:52:38;24.93;;;20.43;;
40931;SDS011;36257;46.052;12.540;2023-12-22T06:55:04;20.23;;;16.43;;
40931;SDS011;36257;46.052;12.540;2023-12-22T06:57:30;8.03;;;7.23;;
40931;SDS011;36257;46.052;12.540;2023-12-22T06:59:56;3.45;;;3.25;;
40931;SDS011;36257;46.052;12.540;2023-12-22T07:02:21;3.05;;;2.95;;
40931;SDS011;36257;46.052;12.540;2023-12-22T07:05:03;2.28;;;2.17;;
40931;SDS011;36257;46.052;12.540;2023-12-22T07:07:48;3.00;;;2.80;;
40931;SDS011;36257;46.052;12.540;2023-12-22T07:10:15;23.65;;;18.13;;
40931;SDS011;36257;46.052;12.540;2023-12-22T07:12:41;26.90;;;19.50;;
40931;SDS011;36257;46.052;12.540;2023-12-22T07:15:07;25.98;;;20.77;;
40931;SDS011;36257;46.052;12.540;2023-12-22T07:17:33;28.10;;;23.90;;
40931;SDS011;36257;46.052;12.540;2023-12-22T07:19:59;29.38;;;22.63;;
40931;SDS011;36257;46.052;12.540;2023-12-22T07:22:24;30.15;;;25.05;;
40931;SDS011;36257;46.052;12.540;2023-12-22T07:24:50;31.10;;;24.63;;
40931;SDS011;36257;46.052;12.540;2023-12-22T07:27:17;29.60;;;23.05;;
40931;SDS011;36257;46.052;12.540;2023-12-22T07:29:43;31.90;;;23.77;;
40931;SDS011;36257;46.052;12.540;2023-12-22T07:32:09;29.80;;;22.67;;
40931;SDS011;36257;46.052;12.540;2023-12-22T07:34:34;25.85;;;17.85;;
40931;SDS011;36257;46.052;12.540;2023-12-22T07:37:00;24.83;;;20.45;;
40931;SDS011;36257;46.052;12.540;2023-12-22T07:39:26;3.40;;;3.20;;
40931;SDS011;36257;46.052;12.540;2023-12-22T07:41:52;3.13;;;2.92;;
40931;SDS011;36257;46.052;12.540;2023-12-22T07:44:17;1.63;;;1.55;;
40931;SDS011;36257;46.052;12.540;2023-12-22T07:46:43;1.67;;;1.42;;
40931;SDS011;36257;46.052;12.540;2023-12-22T07:49:08;1.13;;;1.13;;
40931;SDS011;36257;46.052;12.540;2023-12-22T07:51:35;2.65;;;1.30;;
40931;SDS011;36257;46.052;12.540;2023-12-22T07:54:00;1.13;;;1.13;;
40931;SDS011;36257;46.052;12.540;2023-12-22T07:56:26;1.33;;;1.33;;
40931;SDS011;36257;46.052;12.540;2023-12-22T07:58:52;1.42;;;1.08;;
40931;SDS011;36257;46.052;12.540;2023-12-22T08:01:18;0.85;;;0.85;;
40931;SDS011;36257;46.052;12.540;2023-12-22T08:03:44;0.93;;;0.93;;
40931;SDS011;36257;46.052;12.540;2023-12-22T08:06:09;1.38;;;1.10;;
40931;SDS011;36257;46.052;12.540;2023-12-22T08:08:35;1.17;;;1.17;;
40931;SDS011;36257;46.052;12.540;2023-12-22T08:11:01;0.98;;;0.98;;
40931;SDS011;36257;46.052;12.540;2023-12-22T08:13:27;2.28;;;0.90;;
40931;SDS011;36257;46.052;12.540;2023-12-22T08:15:52;1.25;;;1.10;;
40931;SDS011;36257;46.052;12.540;2023-12-22T08:18:18;1.42;;;0.95;;
40931;SDS011;36257;46.052;12.540;2023-12-22T08:20:44;1.10;;;1.10;;
40931;SDS011;36257;46.052;12.540;2023-12-22T08:23:10;1.17;;;0.82;;
40931;SDS011;36257;46.052;12.540;2023-12-22T08:25:37;0.95;;;0.95;;
40931;SDS011;36257;46.052;12.540;2023-12-22T08:28:04;26.05;;;15.82;;
40931;SDS011;36257;46.052;12.540;2023-12-22T08:30:29;20.23;;;15.60;;
40931;SDS011;36257;46.052;12.540;2023-12-22T08:32:55;22.70;;;16.20;;
40931;SDS011;36257;46.052;12.540;2023-12-22T08:35:21;22.77;;;19.55;;
40931;SDS011;36257;46.052;12.540;2023-12-22T08:37:46;29.10;;;22.38;;
40931;SDS011;36257;46.052;12.540;2023-12-22T08:40:12;27.85;;;22.45;;
40931;SDS011;36257;46.052;12.540;2023-12-22T08:42:38;29.15;;;21.85;;
40931;SDS011;36257;46.052;12.540;2023-12-22T08:45:04;25.17;;;22.27;;
40931;SDS011;36257;46.052;12.540;2023-12-22T08:47:30;31.48;;;24.48;;
40931;SDS011;36257;46.052;12.540;2023-12-22T08:49:56;34.00;;;24.60;;
40931;SDS011;36257;46.052;12.540;2023-12-22T08:52:21;32.67;;;24.67;;
40931;SDS011;36257;46.052;12.540;2023-12-22T08:54:47;32.45;;;26.08;;
40931;SDS011;36257;46.052;12.540;2023-12-22T08:57:13;40.35;;;24.95;;
40931;SDS011;36257;46.052;12.540;2023-12-22T08:59:38;35.50;;;26.55;;
40931;SDS011;36257;46.052;12.540;2023-12-22T09:02:04;32.55;;;26.67;;
40931;SDS011;36257;46.052;12.540;2023-12-22T09:04:31;34.67;;;27.50;;
40931;SDS011;36257;46.052;12.540;2023-12-22T12:18:07;53.15;;;46.50;;
40931;SDS011;36257;46.052;12.540;2023-12-22T12:20:34;57.30;;;46.67;;
40931;SDS011;36257;46.052;12.540;2023-12-22T12:23:00;52.28;;;43.35;;
40931;SDS011;36257;46.052;12.540;2023-12-22T12:25:30;54.75;;;45.22;;
40931;SDS011;36257;46.052;12.540;2023-12-22T12:28:06;52.22;;;43.20;;
40931;SDS011;36257;46.052;12.540;2023-12-22T12:30:37;52.78;;;45.13;;
40931;SDS011;36257;46.052;12.540;2023-12-22T12:33:07;51.67;;;43.95;;
40931;SDS011;36257;46.052;12.540;2023-12-22T12:35:39;55.17;;;45.05;;
40931;SDS011;36257;46.052;12.540;2023-12-22T12:38:06;58.88;;;47.33;;
40931;SDS011;36257;46.052;12.540;2023-12-22T12:40:32;49.92;;;42.55;;
40931;SDS011;36257;46.052;12.540;2023-12-22T12:43:00;50.75;;;43.63;;
40931;SDS011;36257;46.052;12.540;2023-12-22T12:45:27;52.88;;;44.75;;
40931;SDS011;36257;46.052;12.540;2023-12-22T12:48:00;52.45;;;44.58;;
40931;SDS011;36257;46.052;12.540;2023-12-22T12:50:27;55.00;;;43.53;;
40931;SDS011;36257;46.052;12.540;2023-12-22T12:52:53;49.10;;;40.67;;
40931;SDS011;36257;46.052;12.540;2023-12-22T12:55:23;50.35;;;42.97;;
40931;SDS011;36257;46.052;12.540;2023-12-22T12:57:53;50.33;;;43.30;;
40931;SDS011;36257;46.052;12.540;2023-12-22T13:00:29;53.88;;;43.83;;
40931;SDS011;36257;46.052;12.540;2023-12-22T13:02:59;51.70;;;42.92;;
40931;SDS011;36257;46.052;12.540;2023-12-22T13:05:29;52.30;;;43.65;;
40931;SDS011;36257;46.052;12.540;2023-12-22T13:08:12;52.10;;;42.07;;
40931;SDS011;36257;46.052;12.540;2023-12-22T13:10:38;56.55;;;45.03;;
40931;SDS011;36257;46.052;12.540;2023-12-22T13:13:06;54.45;;;45.75;;
40931;SDS011;36257;46.052;12.540;2023-12-22T13:15:32;49.45;;;42.25;;
40931;SDS011;36257;46.052;12.540;2023-12-22T13:17:58;51.85;;;44.17;;
40931;SDS011;36257;46.052;12.540;2023-12-22T13:20:23;50.65;;;43.95;;
40931;SDS011;36257;46.052;12.540;2023-12-22T13:22:49;60.03;;;47.25;;
40931;SDS011;36257;46.052;12.540;2023-12-22T13:25:15;54.33;;;43.10;;
40931;SDS011;36257;46.052;12.540;2023-12-22T13:27:48;53.08;;;44.75;;
40931;SDS011;36257;46.052;12.540;2023-12-22T13:30:35;53.33;;;43.40;;
40931;SDS011;36257;46.052;12.540;2023-12-22T13:33:03;57.33;;;44.30;;
40931;SDS011;36257;46.052;12.540;2023-12-22T13:35:29;55.45;;;45.65;;
40931;SDS011;36257;46.052;12.540;2023-12-22T13:37:54;53.17;;;42.75;;
40931;SDS011;36257;46.052;12.540;2023-12-22T13:40:21;52.72;;;43.97;;
40931;SDS011;36257;46.052;12.540;2023-12-22T13:42:56;52.53;;;43.63;;
40931;SDS011;36257;46.052;12.540;2023-12-22T13:45:23;50.78;;;42.25;;
40931;SDS011;36257;46.052;12.540;2023-12-22T13:47:52;48.05;;;41.92;;
40931;SDS011;36257;46.052;12.540;2023-12-22T13:50:18;47.70;;;40.58;;
40931;SDS011;36257;46.052;12.540;2023-12-22T13:52:44;50.15;;;43.00;;
40931;SDS011;36257;46.052;12.540;2023-12-22T13:55:13;50.65;;;42.78;;
40931;SDS011;36257;46.052;12.540;2023-12-22T13:57:40;51.00;;;43.78;;
40931;SDS011;36257;46.052;12.540;2023-12-22T14:02:48;52.88;;;45.20;;
40931;SDS011;36257;46.052;12.540;2023-12-22T14:05:14;48.35;;;40.65;;
40931;SDS011;36257;46.052;12.540;2023-12-22T14:07:43;49.53;;;44.13;;
40931;SDS011;36257;46.052;12.540;2023-12-22T14:10:09;52.28;;;44.75;;
40931;SDS011;36257;46.052;12.540;2023-12-22T14:12:39;58.40;;;47.03;;
40931;SDS011;36257;46.052;12.540;2023-12-22T14:15:06;54.45;;;45.25;;
40931;SDS011;36257;46.052;12.540;2023-12-22T14:17:32;55.13;;;44.20;;
40931;SDS011;36257;46.052;12.540;2023-12-22T14:19:58;57.50;;;46.08;;
40931;SDS011;36257;46.052;12.540;2023-12-22T14:22:23;58.50;;;48.60;;
40931;SDS011;36257;46.052;12.540;2023-12-22T14:24:49;55.58;;;46.40;;
40931;SDS011;36257;46.052;12.540;2023-12-22T14:27:15;51.22;;;44.05;;
40931;SDS011;36257;46.052;12.540;2023-12-22T14:29:43;56.50;;;45.70;;
40931;SDS011;36257;46.052;12.540;2023-12-22T14:32:11;56.72;;;45.90;;
40931;SDS011;36257;46.052;12.540;2023-12-22T14:34:39;66.43;;;49.13;;
40931;SDS011;36257;46.052;12.540;2023-12-22T14:37:05;55.03;;;44.63;;
40931;SDS011;36257;46.052;12.540;2023-12-22T14:39:31;58.10;;;46.47;;
40931;SDS011;36257;46.052;12.540;2023-12-22T14:41:58;62.60;;;48.42;;
40931;SDS011;36257;46.052;12.540;2023-12-22T14:44:24;55.13;;;45.22;;
40931;SDS011;36257;46.052;12.540;2023-12-22T14:46:50;59.22;;;49.05;;
40931;SDS011;36257;46.052;12.540;2023-12-22T14:49:16;63.28;;;47.05;;
40931;SDS011;36257;46.052;12.540;2023-12-22T14:51:43;63.47;;;47.88;;
40931;SDS011;36257;46.052;12.540;2023-12-22T14:54:08;61.63;;;47.92;;
40931;SDS011;36257;46.052;12.540;2023-12-22T14:56:34;55.00;;;46.15;;
40931;SDS011;36257;46.052;12.540;2023-12-22T14:59:03;61.17;;;49.28;;
40931;SDS011;36257;46.052;12.540;2023-12-22T15:01:29;65.30;;;50.20;;
40931;SDS011;36257;46.052;12.540;2023-12-22T15:03:58;61.13;;;46.13;;
40931;SDS011;36257;46.052;12.540;2023-12-22T15:06:24;57.20;;;45.58;;
40931;SDS011;36257;46.052;12.540;2023-12-22T15:08:49;62.08;;;45.85;;
40931;SDS011;36257;46.052;12.540;2023-12-22T15:11:15;66.47;;;47.38;;
40931;SDS011;36257;46.052;12.540;2023-12-22T15:13:41;63.85;;;47.15;;
40931;SDS011;36257;46.052;12.540;2023-12-22T17:20:03;52.37;;;39.67;;
40931;SDS011;36257;46.052;12.540;2023-12-22T17:22:29;52.10;;;40.40;;
40931;SDS011;36257;46.052;12.540;2023-12-22T17:24:55;61.40;;;44.92;;
40931;SDS011;36257;46.052;12.540;2023-12-22T17:27:20;70.23;;;51.43;;
40931;SDS011;36257;46.052;12.540;2023-12-22T17:29:46;66.20;;;49.13;;
40931;SDS011;36257;46.052;12.540;2023-12-22T17:32:12;56.10;;;43.17;;
40931;SDS011;36257;46.052;12.540;2023-12-22T17:34:37;52.78;;;41.53;;
40931;SDS011;36257;46.052;12.540;2023-12-22T17:37:03;56.95;;;41.72;;
40931;SDS011;36257;46.052;12.540;2023-12-22T17:39:29;54.00;;;42.20;;
40931;SDS011;36257;46.052;12.540;2023-12-22T17:41:55;51.80;;;40.57;;
40931;SDS011;36257;46.052;12.540;2023-12-22T17:44:21;48.50;;;38.97;;
40931;SDS011;36257;46.052;12.540;2023-12-22T17:46:49;48.08;;;39.13;;
40931;SDS011;36257;46.052;12.540;2023-12-22T17:49:15;54.23;;;41.00;;
40931;SDS011;36257;46.052;12.540;2023-12-22T17:51:41;56.70;;;42.05;;
40931;SDS011;36257;46.052;12.540;2023-12-22T17:54:06;59.87;;;45.73;;
40931;SDS011;36257;46.052;12.540;2023-12-22T17:56:32;47.20;;;37.33;;
40931;SDS011;36257;46.052;12.540;2023-12-22T17:58:58;43.27;;;32.67;;
40931;SDS011;36257;46.052;12.540;2023-12-22T18:01:24;38.47;;;30.80;;
40931;SDS011;36257;46.052;12.540;2023-12-22T18:03:50;48.53;;;38.57;;
40931;SDS011;36257;46.052;12.540;2023-12-22T18:06:19;40.07;;;31.37;;
40931;SDS011;36257;46.052;12.540;2023-12-22T18:08:46;45.83;;;35.70;;
40931;SDS011;36257;46.052;12.540;2023-12-22T18:11:12;39.97;;;32.47;;
40931;SDS011;36257;46.052;12.540;2023-12-22T18:13:38;37.73;;;29.73;;
40931;SDS011;36257;46.052;12.540;2023-12-22T18:16:04;39.57;;;31.67;;
40931;SDS011;36257;46.052;12.540;2023-12-22T18:18:30;43.10;;;32.83;;
40931;SDS011;36257;46.052;12.540;2023-12-22T18:20:56;44.60;;;33.47;;
40931;SDS011;36257;46.052;12.540;2023-12-22T18:23:23;45.22;;;33.72;;
40931;SDS011;36257;46.052;12.540;2023-12-22T18:25:48;45.50;;;34.40;;
40931;SDS011;36257;46.052;12.540;2023-12-22T18:28:15;51.13;;;35.50;;
40931;SDS011;36257;46.052;12.540;2023-12-22T18:30:41;48.80;;;34.83;;
40931;SDS011;36257;46.052;12.540;2023-12-22T18:33:06;49.80;;;33.13;;
40931;SDS011;36257;46.052;12.540;2023-12-22T18:35:32;45.37;;;30.83;;
40931;SDS011;36257;46.052;12.540;2023-12-22T18:37:57;39.63;;;28.77;;
40931;SDS011;36257;46.052;12.540;2023-12-22T18:40:23;36.67;;;25.43;;
40931;SDS011;36257;46.052;12.540;2023-12-22T18:42:49;33.57;;;25.47;;
40931;SDS011;36257;46.052;12.540;2023-12-22T18:45:14;29.63;;;23.97;;
40931;SDS011;36257;46.052;12.540;2023-12-22T18:47:40;27.53;;;22.97;;
40931;SDS011;36257;46.052;12.540;2023-12-22T18:50:06;25.73;;;22.17;;
40931;SDS011;36257;46.052;12.540;2023-12-22T18:52:31;27.47;;;20.87;;
40931;SDS011;36257;46.052;12.540;2023-12-22T18:54:57;23.53;;;19.90;;
40931;SDS011;36257;46.052;12.540;2023-12-22T18:57:23;23.00;;;19.33;;
40931;SDS011;36257;46.052;12.540;2023-12-22T18:59:49;28.63;;;21.13;;
40931;SDS011;36257;46.052;12.540;2023-12-22T19:02:19;29.93;;;24.43;;
40931;SDS011;36257;46.052;12.540;2023-12-22T19:04:45;24.97;;;20.13;;
40931;SDS011;36257;46.052;12.540;2023-12-22T19:07:11;22.67;;;18.87;;
40931;SDS011;36257;46.052;12.540;2023-12-22T19:09:37;25.37;;;21.27;;
40931;SDS011;36257;46.052;12.540;2023-12-22T19:12:03;22.80;;;18.97;;
40931;SDS011;36257;46.052;12.540;2023-12-22T19:14:29;23.20;;;18.77;;
40931;SDS011;36257;46.052;12.540;2023-12-22T19:16:55;18.20;;;15.40;;
40931;SDS011;36257;46.052;12.540;2023-12-22T19:19:21;18.90;;;15.17;;
40931;SDS011;36257;46.052;12.540;2023-12-22T19:21:46;21.17;;;16.93;;
40931;SDS011;36257;46.052;12.540;2023-12-22T19:24:12;30.30;;;20.90;;
40931;SDS011;36257;46.052;12.540;2023-12-22T19:26:37;21.23;;;16.77;;
40931;SDS011;36257;46.052;12.540;2023-12-22T19:31:31;22.23;;;17.80;;
40931;SDS011;36257;46.052;12.540;2023-12-22T19:33:59;24.17;;;19.70;;